LICT

Trapani–Birgi Airport

Airport
ICAO code
LICT
IATA Code
TPS
Summary
ICAO Region
EUR
ICAO Territory
Location

Birgi, Sicily

Serving
Trapani
Elevation
25 ft
Coordinates
37° 54' 47" N , 12° 29' 33" E
KCC
Metar
Observation
LICT 031855Z 07001KT CAVOK 08/07 Q1027
Station
Trapani / Birgi
Date/Time
2023-02-03 18:55:00
Wind direction
70°
Wind speed
01 kts
Lowest cloud amount
clouds and visibility OK
Temperature
8°C
Dew point
7°C
Humidity
93%
QNH
1027 hPa
Weather condition
n/a

Trapani–Birgi Airport, is a military air base and public airport serving Trapani, in Sicily, Italy.

Climatology

Warm mediterranean climate (Köppen climate classification Csa)

Runways

Designator Length Width Surface Rops
13/31 2698 45 ASP No/No

Airport map

Aerial View

SKYbrary Partners:

Safety knowledge contributed by: